createdAt,value
2023-05-05T00:00:15.029Z,3.218
2023-05-05T00:01:15.197Z,3.198
2023-05-05T00:02:15.383Z,3.217
2023-05-05T00:03:15.608Z,3.159
2023-05-05T00:04:15.760Z,3.177
2023-05-05T00:05:15.815Z,3.159
2023-05-05T00:06:15.992Z,3.198
2023-05-05T00:07:16.199Z,3.219
2023-05-05T00:08:16.361Z,3.218
2023-05-05T00:09:16.543Z,3.161
2023-05-05T00:10:16.624Z,3.123
2023-05-05T00:11:16.770Z,3.142
2023-05-05T00:12:16.891Z,3.142
2023-05-05T00:13:17.060Z,3.142
2023-05-05T00:14:17.201Z,3.161
2023-05-05T00:15:17.344Z,3.114
2023-05-05T00:16:17.521Z,3.087
2023-05-05T00:17:17.697Z,3.087
2023-05-05T00:18:17.800Z,3.087
2023-05-05T00:19:17.984Z,3.107
2023-05-05T00:20:18.157Z,3.145
2023-05-05T00:21:18.355Z,3.117
2023-05-05T00:22:18.559Z,3.136
2023-05-05T00:23:18.717Z,3.146
2023-05-05T00:24:18.880Z,3.129
2023-05-05T00:25:19.097Z,3.054
2023-05-05T00:26:19.232Z,3.093
2023-05-05T00:27:19.497Z,3.054
2023-05-05T00:28:19.674Z,3.035
2023-05-05T00:29:19.879Z,3.037
2023-05-05T00:30:20.043Z,3.056
2023-05-05T00:31:20.258Z,3.076
2023-05-05T00:32:20.497Z,3.037
2023-05-05T00:33:20.617Z,2.999
2023-05-05T00:34:20.809Z,3.019
2023-05-05T00:35:21.009Z,3.019
2023-05-05T00:36:21.267Z,2.98
2023-05-05T00:37:21.558Z,3.029
2023-05-05T00:38:21.785Z,2.964
2023-05-05T00:39:21.935Z,2.964
2023-05-05T00:40:22.145Z,3.002
2023-05-05T00:41:22.440Z,2.966
2023-05-05T00:42:22.636Z,2.947
2023-05-05T00:43:22.925Z,3.004
2023-05-05T00:44:23.138Z,2.909
2023-05-05T00:45:23.365Z,2.947
2023-05-05T00:46:23.644Z,2.985
2023-05-05T00:47:23.807Z,2.947
2023-05-05T00:48:23.941Z,2.985
2023-05-05T00:49:24.177Z,2.938
2023-05-05T00:50:24.298Z,2.91
2023-05-05T00:51:24.397Z,2.93
2023-05-05T00:52:24.545Z,2.949
2023-05-05T00:53:24.726Z,2.93
2023-05-05T00:54:24.885Z,2.987
2023-05-05T00:55:25.010Z,2.949
2023-05-05T00:56:25.164Z,2.894
2023-05-05T00:57:25.330Z,2.913
2023-05-05T00:58:25.458Z,2.932
2023-05-05T00:59:25.684Z,2.97
2023-05-05T01:00:25.805Z,2.923
2023-05-05T01:01:26.094Z,2.904
2023-05-05T01:02:26.336Z,2.904
2023-05-05T01:03:26.510Z,2.933
2023-05-05T01:04:26.577Z,2.877
2023-05-05T01:05:26.732Z,2.868
2023-05-05T01:06:26.951Z,2.868
2023-05-05T01:07:27.137Z,2.849
2023-05-05T01:08:27.314Z,2.83
2023-05-05T01:09:27.445Z,2.849
2023-05-05T01:10:27.836Z,2.868
2023-05-05T01:11:27.777Z,2.849
2023-05-05T01:12:27.910Z,2.849
2023-05-05T01:13:28.108Z,2.831
2023-05-05T01:14:28.288Z,2.804
2023-05-05T01:15:28.428Z,2.786
2023-05-05T01:16:28.655Z,2.804
2023-05-05T01:17:28.876Z,2.767
2023-05-05T01:18:29.019Z,2.776
2023-05-05T01:19:29.184Z,2.786
2023-05-05T01:20:29.319Z,2.814
2023-05-05T01:21:29.620Z,2.833
2023-05-05T01:22:29.819Z,2.851
2023-05-05T01:23:30.001Z,2.851
2023-05-05T01:24:30.209Z,2.833
2023-05-05T01:25:30.486Z,2.851
2023-05-05T01:26:30.712Z,2.852
2023-05-05T01:27:30.910Z,2.777
2023-05-05T01:28:31.189Z,2.731
2023-05-05T01:29:31.385Z,2.749
2023-05-05T01:30:31.605Z,2.787
2023-05-05T01:31:31.830Z,2.806
2023-05-05T01:32:32.014Z,2.816
2023-05-05T01:33:32.172Z,2.825
2023-05-05T01:34:32.504Z,2.797
2023-05-05T01:35:32.649Z,2.797
2023-05-05T01:36:32.849Z,2.732
2023-05-05T01:37:33.132Z,2.769
2023-05-05T01:38:33.332Z,2.741
2023-05-05T01:39:33.648Z,2.695
2023-05-05T01:40:33.828Z,2.714
2023-05-05T01:41:34.010Z,2.751
2023-05-05T01:42:34.172Z,2.695
2023-05-05T01:43:34.383Z,2.714
2023-05-05T01:44:34.696Z,2.732
2023-05-05T01:45:35.042Z,2.723
2023-05-05T01:46:35.230Z,2.742
2023-05-05T01:47:35.485Z,2.751
2023-05-05T01:48:35.676Z,2.723
2023-05-05T01:49:35.969Z,2.76
2023-05-05T01:50:36.191Z,2.76
2023-05-05T01:51:36.387Z,2.769
2023-05-05T01:52:36.619Z,2.741
2023-05-05T01:53:36.946Z,2.759
2023-05-05T01:54:37.167Z,2.759
2023-05-05T01:55:37.506Z,2.722
2023-05-05T01:56:37.750Z,2.722
2023-05-05T01:57:38.053Z,2.722
2023-05-05T01:58:38.270Z,2.74
2023-05-05T01:59:38.550Z,2.74
2023-05-05T02:00:38.688Z,2.74
2023-05-05T02:01:39.154Z,2.758
2023-05-05T02:02:39.560Z,2.739
2023-05-05T02:03:39.739Z,2.739
2023-05-05T02:04:39.956Z,2.702
2023-05-05T02:05:40.314Z,2.674
2023-05-05T02:06:40.749Z,2.664
2023-05-05T02:07:41.165Z,2.664
2023-05-05T02:08:41.330Z,2.664
2023-05-05T02:09:41.591Z,2.664
2023-05-05T02:10:41.867Z,2.646
2023-05-05T02:11:42.165Z,2.664
2023-05-05T02:12:42.463Z,2.682
2023-05-05T02:13:42.762Z,2.719
2023-05-05T02:14:43.018Z,2.701
2023-05-05T02:15:43.480Z,2.654
2023-05-05T02:16:43.644Z,2.672
2023-05-05T02:17:44.065Z,2.654
2023-05-05T02:18:44.259Z,2.608
2023-05-05T02:19:44.561Z,2.616
2023-05-05T02:20:44.906Z,2.635
2023-05-05T02:21:45.262Z,2.598
2023-05-05T02:22:45.480Z,2.616
2023-05-05T02:23:45.855Z,2.635
2023-05-05T02:24:46.079Z,2.635
2023-05-05T02:25:46.462Z,2.643
2023-05-05T02:26:46.772Z,2.606
2023-05-05T02:27:46.978Z,2.588
2023-05-05T02:28:47.215Z,2.588
2023-05-05T02:29:47.459Z,2.606
2023-05-05T02:30:47.729Z,2.606
2023-05-05T02:31:48.208Z,2.606
2023-05-05T02:32:48.397Z,2.606
2023-05-05T02:33:48.650Z,2.606
2023-05-05T02:34:48.854Z,2.569
2023-05-05T02:35:49.154Z,2.587
2023-05-05T02:36:49.438Z,2.643
2023-05-05T02:37:49.660Z,2.643
2023-05-05T02:38:49.979Z,2.624
2023-05-05T02:39:50.187Z,2.642
2023-05-05T02:40:50.514Z,2.66
2023-05-05T02:41:50.750Z,2.707
2023-05-05T02:42:51.030Z,2.725
2023-05-05T02:43:51.261Z,2.743
2023-05-05T02:44:51.538Z,2.671
2023-05-05T02:45:51.835Z,2.708
2023-05-05T02:46:52.272Z,2.691
2023-05-05T02:47:52.501Z,2.726
2023-05-05T02:48:52.780Z,2.726
2023-05-05T02:49:53.069Z,2.726
2023-05-05T02:50:53.487Z,2.745
2023-05-05T02:51:53.823Z,2.745
2023-05-05T02:52:54.211Z,2.745
2023-05-05T02:53:54.494Z,2.763
2023-05-05T02:54:54.813Z,2.763
2023-05-05T02:55:55.280Z,2.782
2023-05-05T02:56:55.571Z,2.763
2023-05-05T02:57:55.878Z,2.744
2023-05-05T02:58:56.310Z,2.745
2023-05-05T02:59:56.665Z,2.745
2023-05-05T03:00:57.069Z,2.69
2023-05-05T03:01:57.626Z,2.671
2023-05-05T03:02:57.779Z,2.689
2023-05-05T03:03:58.035Z,2.653
2023-05-05T03:04:58.226Z,2.707
2023-05-05T03:05:58.561Z,2.707
2023-05-05T03:06:58.958Z,2.743
2023-05-05T03:07:59.333Z,2.743
2023-05-05T03:08:59.653Z,2.743
2023-05-05T03:10:00.133Z,2.707
2023-05-05T03:11:00.394Z,2.671
2023-05-05T03:12:00.765Z,2.689
2023-05-05T03:13:01.273Z,2.689
2023-05-05T03:14:01.603Z,2.671
2023-05-05T03:15:02.161Z,2.707
2023-05-05T03:16:02.590Z,2.779
2023-05-05T03:17:02.911Z,2.697
2023-05-05T03:18:03.225Z,2.697
2023-05-05T03:19:03.528Z,2.733
2023-05-05T03:20:04.074Z,2.769
2023-05-05T03:21:04.362Z,2.742
2023-05-05T03:22:04.646Z,2.751
2023-05-05T03:23:05.013Z,2.686
2023-05-05T03:24:05.520Z,2.65
2023-05-05T03:25:05.933Z,2.632
2023-05-05T03:26:06.268Z,2.595
2023-05-05T03:27:06.940Z,2.613
2023-05-05T03:28:07.278Z,2.632
2023-05-05T03:29:07.592Z,2.614
2023-05-05T03:30:08.259Z,2.614
2023-05-05T03:31:08.271Z,2.65
2023-05-05T03:32:08.704Z,2.612
2023-05-05T03:33:09.191Z,2.593
2023-05-05T03:34:09.288Z,2.611
2023-05-05T03:35:09.542Z,2.555
2023-05-05T03:36:09.747Z,2.536
2023-05-05T03:37:10.151Z,2.499
2023-05-05T03:38:10.677Z,2.499
2023-05-05T03:39:10.908Z,2.517
2023-05-05T03:40:11.140Z,2.517
2023-05-05T03:41:11.397Z,2.461
2023-05-05T03:42:11.800Z,2.479
2023-05-05T03:43:12.024Z,2.479
2023-05-05T03:44:12.187Z,2.469
2023-05-05T03:45:12.509Z,2.469
2023-05-05T03:46:12.829Z,2.45
2023-05-05T03:47:12.974Z,2.393
2023-05-05T03:48:13.408Z,2.411
2023-05-05T03:49:13.722Z,2.429
2023-05-05T03:50:14.049Z,2.429
2023-05-05T03:51:14.393Z,2.409
2023-05-05T03:52:15.153Z,2.428
2023-05-05T03:53:15.094Z,2.427
2023-05-05T03:54:15.429Z,2.445
2023-05-05T03:55:15.778Z,2.427
2023-05-05T03:56:16.077Z,2.446
2023-05-05T03:57:16.470Z,2.446
2023-05-05T03:58:17.011Z,2.407
2023-05-05T03:59:17.367Z,2.39
2023-05-05T04:00:17.718Z,2.39
2023-05-05T04:01:18.096Z,2.39
2023-05-05T04:02:18.885Z,2.39
2023-05-05T04:03:19.058Z,2.408
2023-05-05T04:04:19.331Z,2.408
2023-05-05T04:05:19.532Z,2.39
2023-05-05T04:06:20.097Z,2.4
2023-05-05T04:07:20.480Z,2.382
2023-05-05T04:08:21.133Z,2.418
2023-05-05T04:09:21.490Z,2.326
2023-05-05T04:10:22.017Z,2.308
2023-05-05T04:11:22.421Z,2.308
2023-05-05T04:12:22.785Z,2.29
2023-05-05T04:13:23.231Z,2.29
2023-05-05T04:14:23.542Z,2.29
2023-05-05T04:15:24.063Z,2.283
2023-05-05T04:16:24.384Z,2.3
2023-05-05T04:17:24.661Z,2.301
2023-05-05T04:18:25.156Z,2.283
2023-05-05T04:19:25.539Z,2.301
2023-05-05T04:20:26.049Z,2.329
2023-05-05T04:21:26.344Z,2.357
2023-05-05T04:22:26.741Z,2.349
2023-05-05T04:23:27.438Z,2.34
2023-05-05T04:24:27.940Z,2.286
2023-05-05T04:25:28.281Z,2.305
2023-05-05T04:26:28.771Z,2.287
2023-05-05T04:27:29.139Z,2.269
2023-05-05T04:28:29.458Z,2.287
2023-05-05T04:29:29.993Z,2.287
2023-05-05T04:30:30.614Z,2.381
2023-05-05T04:31:30.970Z,2.308
2023-05-05T04:32:31.521Z,2.325
2023-05-05T04:33:32.000Z,2.371
2023-05-05T04:34:32.473Z,2.353
2023-05-05T04:35:33.007Z,2.299
2023-05-05T04:36:33.587Z,2.263
2023-05-05T04:37:33.931Z,2.227
2023-05-05T04:38:34.653Z,2.319
2023-05-05T04:39:35.192Z,2.302
2023-05-05T04:40:35.557Z,2.274
2023-05-05T04:41:36.185Z,2.321
2023-05-05T04:42:36.565Z,2.248
2023-05-05T04:43:36.836Z,2.266
2023-05-05T04:44:37.410Z,2.303
2023-05-05T04:45:37.793Z,2.267
2023-05-05T04:46:38.441Z,2.249
2023-05-05T04:47:38.922Z,2.23
2023-05-05T04:48:39.519Z,2.286
2023-05-05T04:49:40.047Z,2.341
2023-05-05T04:50:40.682Z,2.249
2023-05-05T04:51:41.235Z,2.268
2023-05-05T04:52:41.682Z,2.249
2023-05-05T04:53:42.099Z,2.305
2023-05-05T04:54:42.741Z,2.249
2023-05-05T04:55:43.457Z,2.286
2023-05-05T04:56:43.893Z,2.286
2023-05-05T04:57:44.510Z,2.212
2023-05-05T04:58:44.985Z,2.249
2023-05-05T04:59:45.467Z,2.286
2023-05-05T05:00:45.901Z,2.248
2023-05-05T05:01:46.676Z,2.305
2023-05-05T05:02:47.188Z,2.305
2023-05-05T05:03:47.812Z,2.285
2023-05-05T05:04:48.335Z,2.229
2023-05-05T05:05:48.796Z,2.285
2023-05-05T05:06:49.321Z,2.303
2023-05-05T05:07:49.980Z,2.341
2023-05-05T05:08:50.496Z,2.359
2023-05-05T05:09:50.976Z,2.283
2023-05-05T05:10:51.526Z,2.376
2023-05-05T05:11:51.969Z,2.376
2023-05-05T05:12:52.744Z,2.374
2023-05-05T05:13:53.295Z,2.355
2023-05-05T05:14:53.776Z,2.383
2023-05-05T05:15:54.546Z,2.314
2023-05-05T05:16:55.343Z,2.369
2023-05-05T05:17:55.953Z,2.407
2023-05-05T05:18:56.712Z,2.349
2023-05-05T05:19:57.439Z,2.443
2023-05-05T05:20:58.192Z,2.423
2023-05-05T05:21:58.750Z,2.44
2023-05-05T05:22:59.501Z,2.456
2023-05-05T05:24:00.407Z,2.572
2023-05-05T05:25:01.192Z,2.511
2023-05-05T05:26:01.769Z,2.683
2023-05-05T05:27:02.554Z,2.606
2023-05-05T05:28:10.131Z,2.468
2023-05-05T05:29:03.945Z,2.486
2023-05-05T05:30:04.620Z,2.466
2023-05-05T05:31:04.712Z,2.521
2023-05-05T05:32:05.549Z,2.575
2023-05-05T05:33:06.303Z,2.536
2023-05-05T05:34:07.067Z,2.513
2023-05-05T05:35:07.814Z,2.531
2023-05-05T05:36:08.418Z,2.429
2023-05-05T05:37:09.205Z,2.498
2023-05-05T05:38:09.947Z,2.524
2023-05-05T05:39:10.751Z,2.57
2023-05-05T05:40:11.542Z,2.523
2023-05-05T05:41:12.202Z,2.468
2023-05-05T05:42:12.935Z,2.302
2023-05-05T05:43:13.570Z,2.261
2023-05-05T05:44:14.399Z,2.327
2023-05-05T05:45:15.188Z,2.29
2023-05-05T05:46:15.985Z,2.344
2023-05-05T05:47:16.799Z,2.158
2023-05-05T05:48:17.433Z,2.292
2023-05-05T05:49:18.282Z,2.048
2023-05-05T05:50:18.910Z,2.038
2023-05-05T05:51:19.699Z,1.991
2023-05-05T05:52:20.416Z,2.067
2023-05-05T05:53:21.015Z,1.889
2023-05-05T05:54:21.586Z,1.987
2023-05-05T05:55:21.909Z,1.941
2023-05-05T05:56:22.467Z,1.929
2023-05-05T05:57:22.845Z,1.88
2023-05-05T05:58:23.658Z,1.796
2023-05-05T05:59:24.313Z,1.796
2023-05-05T06:00:25.220Z,1.791
2023-05-05T06:01:26.116Z,1.796
2023-05-05T06:02:26.822Z,1.823
2023-05-05T06:03:27.379Z,1.751
2023-05-05T06:04:28.239Z,1.715
2023-05-05T06:05:28.970Z,1.932
2023-05-05T06:06:29.372Z,1.91
2023-05-05T06:07:29.945Z,1.859
2023-05-05T06:08:30.681Z,1.735
2023-05-05T06:09:31.320Z,1.754
2023-05-05T06:10:32.161Z,1.664
2023-05-05T06:11:32.293Z,1.638
2023-05-05T06:12:32.825Z,1.69
2023-05-05T06:13:33.298Z,1.674
2023-05-05T06:14:33.786Z,1.449
2023-05-05T06:15:34.277Z,1.318
2023-05-05T06:16:35.037Z,0.9947
2023-05-05T06:17:35.424Z,0.7577
2023-05-05T06:18:35.815Z,0.8998
2023-05-05T06:19:36.436Z,0.9086
2023-05-05T06:20:37.490Z,0.7004
2023-05-05T06:21:37.937Z,0.4845
2023-05-05T06:22:38.593Z,0.4327
2023-05-05T06:23:39.119Z,0.4592
2023-05-05T06:24:39.797Z,0.1592
2023-05-05T06:25:40.388Z,0.06358
2023-05-05T06:26:41.208Z,0.1152
2023-05-05T06:27:42.014Z,0.09762
2023-05-05T06:28:42.611Z,0.02578
2023-05-05T06:29:43.284Z,0.04939
2023-05-05T06:30:44.042Z,0.03489
2023-05-05T06:31:44.791Z,0.2244
2023-05-05T06:32:45.396Z,-0.08021
2023-05-05T06:33:46.297Z,0.06328
2023-05-05T06:34:47.026Z,0.1772
2023-05-05T06:35:47.861Z,-0.1467
2023-05-05T06:36:48.610Z,-0.2519
2023-05-05T06:37:49.114Z,-0.2587
2023-05-05T06:38:49.699Z,-0.3828
2023-05-05T06:39:50.446Z,-0.1507
2023-05-05T06:40:51.145Z,-0.4172
2023-05-05T06:41:51.704Z,-0.6221
2023-05-05T06:42:52.562Z,-0.5253
2023-05-05T06:43:53.443Z,-0.3537
2023-05-05T06:44:54.317Z,-0.4811
2023-05-05T06:45:55.055Z,-0.2872
2023-05-05T06:46:55.972Z,-0.2842
2023-05-05T06:47:56.688Z,-0.3478
2023-05-05T06:48:57.464Z,-0.319
2023-05-05T06:49:58.325Z,-0.2046
2023-05-05T06:50:59.035Z,-0.4058
2023-05-05T06:51:59.145Z,-0.1455
2023-05-05T06:52:59.903Z,-0.003852
2023-05-05T06:54:00.714Z,-0.2588
2023-05-05T06:55:01.641Z,-0.09847
2023-05-05T06:56:02.607Z,-0.09154
2023-05-05T06:57:03.275Z,-0.1774
2023-05-05T06:58:04.158Z,-0.261
2023-05-05T06:59:04.917Z,-0.02733
2023-05-05T07:00:06.065Z,-0.05891
2023-05-05T07:01:06.803Z,-0.3779
2023-05-05T07:02:07.787Z,-0.2989
2023-05-05T07:03:08.710Z,-0.3569
2023-05-05T07:04:09.463Z,-0.3743
2023-05-05T07:05:09.456Z,-0.4212
2023-05-05T07:06:10.202Z,-0.3519
2023-05-05T07:07:10.993Z,-0.3235
2023-05-05T07:08:11.895Z,-0.5307
2023-05-05T07:09:12.013Z,-0.5583
2023-05-05T07:10:12.873Z,-0.7167
2023-05-05T07:11:13.685Z,-0.895
2023-05-05T07:12:14.650Z,-0.8007
2023-05-05T07:13:15.654Z,-0.7406
2023-05-05T07:14:15.716Z,-0.909
2023-05-05T07:15:26.801Z,-1.298
2023-05-05T07:16:16.666Z,-1.519
2023-05-05T07:17:16.837Z,-1.531
2023-05-05T07:18:17.723Z,-1.426
2023-05-05T07:19:18.632Z,-1.499
2023-05-05T07:20:18.818Z,-1.553
2023-05-05T07:21:19.645Z,-1.982
2023-05-05T07:22:19.922Z,-2.027
2023-05-05T07:23:20.887Z,-2.145
2023-05-05T07:24:21.890Z,-1.879
2023-05-05T07:25:22.286Z,-2.058
2023-05-05T07:26:22.344Z,-1.816
2023-05-05T07:27:23.309Z,-1.732
2023-05-05T07:28:24.293Z,-1.838
2023-05-05T07:29:25.215Z,-1.622
2023-05-05T07:30:25.659Z,-1.766
2023-05-05T07:31:25.392Z,-1.988
2023-05-05T07:32:25.591Z,-2.067
2023-05-05T07:33:26.454Z,-1.943
2023-05-05T07:34:26.696Z,-1.833
2023-05-05T07:35:26.870Z,-1.848
2023-05-05T07:36:27.939Z,-1.601
2023-05-05T07:37:28.200Z,-2.089
2023-05-05T07:38:28.294Z,-1.946
2023-05-05T07:39:29.241Z,-1.863
2023-05-05T07:40:29.340Z,-2.005
2023-05-05T07:41:29.475Z,-2.09
2023-05-05T07:42:29.550Z,-1.938
2023-05-05T07:43:29.681Z,-2.219
2023-05-05T07:44:29.798Z,-2.176
2023-05-05T07:45:30.142Z,-1.821
2023-05-05T07:46:31.251Z,-1.838
2023-05-05T07:47:31.492Z,-2.356
2023-05-05T07:48:32.690Z,-1.898
2023-05-05T07:49:33.579Z,-1.661
2023-05-05T07:50:33.601Z,-1.435
2023-05-05T07:51:34.936Z,-1.772
2023-05-05T07:52:45.130Z,-1.723
2023-05-05T07:53:34.010Z,-1.878
2023-05-05T07:54:34.008Z,-1.773
2023-05-05T07:55:35.370Z,-1.721
2023-05-05T07:56:34.572Z,-1.611
2023-05-05T07:57:35.080Z,-1.611
2023-05-05T07:58:35.152Z,-1.297
2023-05-05T07:59:35.412Z,-1.554
2023-05-05T08:00:35.498Z,-1.194
2023-05-05T08:01:35.902Z,-1.376
2023-05-05T08:02:36.173Z,-0.8444
2023-05-05T08:03:36.841Z,-0.7481
2023-05-05T08:04:36.961Z,-0.6456
2023-05-05T08:05:37.186Z,-0.4086
2023-05-05T08:06:37.381Z,-0.2774
2023-05-05T08:07:37.665Z,-0.6116
2023-05-05T08:08:37.698Z,-0.4033
2023-05-05T08:09:37.842Z,-0.3483
2023-05-05T08:10:38.202Z,-0.4074
2023-05-05T08:11:38.303Z,-0.4159
2023-05-05T08:12:38.786Z,-0.2509
2023-05-05T08:13:39.210Z,-0.494
2023-05-05T08:14:39.456Z,-0.3527
2023-05-05T08:15:39.542Z,-0.4481
2023-05-05T08:16:39.845Z,-0.5762
2023-05-05T08:17:39.960Z,-0.433
2023-05-05T08:18:40.129Z,-0.4692
2023-05-05T08:19:40.351Z,-0.7069
2023-05-05T08:20:40.438Z,-0.684
2023-05-05T08:21:40.556Z,-0.4637
2023-05-05T08:22:40.871Z,-0.2703
2023-05-05T08:23:41.133Z,0.1568
2023-05-05T08:24:41.455Z,0.09763
2023-05-05T08:25:41.720Z,-0.2501
2023-05-05T08:26:41.793Z,-0.1636
2023-05-05T08:27:41.951Z,-0.323
2023-05-05T08:28:42.344Z,-0.3262
2023-05-05T08:29:42.494Z,0.1273
2023-05-05T08:30:43.453Z,-0.02202
2023-05-05T08:31:43.808Z,0.2122
2023-05-05T08:32:44.080Z,0.4563
2023-05-05T08:33:44.371Z,0.1482
2023-05-05T08:34:44.501Z,0.08818
2023-05-05T08:35:44.646Z,0.1776
2023-05-05T08:36:44.714Z,0.09888
2023-05-05T08:37:45.290Z,0.0323
2023-05-05T08:38:45.608Z,-0.08027
2023-05-05T08:39:45.580Z,-0.3704
2023-05-05T08:40:45.997Z,-0.2113
2023-05-05T08:41:46.480Z,0.1084
2023-05-05T08:42:46.648Z,0.4197
2023-05-05T08:43:46.904Z,0.05768
2023-05-05T08:44:47.666Z,-0.07852
2023-05-05T08:45:47.989Z,0.1029
2023-05-05T08:46:48.557Z,0.2343
2023-05-05T08:47:48.751Z,0.2902
2023-05-05T08:48:48.942Z,0.4103
2023-05-05T08:49:50.046Z,0.2851
2023-05-05T08:50:50.226Z,0.6491
2023-05-05T08:51:50.798Z,0.6955
2023-05-05T08:52:51.609Z,0.6831
2023-05-05T08:53:51.741Z,0.7001
2023-05-05T08:54:52.044Z,0.8597
2023-05-05T08:55:52.743Z,0.738
2023-05-05T08:56:52.826Z,1.251
2023-05-05T08:57:53.366Z,1.189
2023-05-05T08:58:53.869Z,1.606
2023-05-05T08:59:54.424Z,1.573
2023-05-05T09:00:54.969Z,1.37
2023-05-05T09:01:55.901Z,1.102
2023-05-05T09:02:56.410Z,1.814
2023-05-05T09:03:56.477Z,2.166
2023-05-05T09:04:56.995Z,2.098
2023-05-05T09:05:57.530Z,2.14
2023-05-05T09:06:58.334Z,2.407
2023-05-05T09:07:58.745Z,2.463
2023-05-05T09:08:59.778Z,2.222
2023-05-05T09:09:59.669Z,2.446
2023-05-05T09:10:59.865Z,2.692
2023-05-05T09:12:00.489Z,2.446
2023-05-05T09:13:01.825Z,2.632
2023-05-05T09:14:02.100Z,3.017
2023-05-05T09:15:02.869Z,3.072
2023-05-05T09:16:03.281Z,2.811
2023-05-05T09:17:03.882Z,2.988
2023-05-05T09:18:04.100Z,3.281
2023-05-05T09:19:04.611Z,3.281
2023-05-05T09:20:05.324Z,3.539
2023-05-05T09:21:05.978Z,3.508
2023-05-05T09:22:06.153Z,3.862
2023-05-05T09:23:06.837Z,3.613
2023-05-05T09:24:08.472Z,4.021
2023-05-05T09:25:08.118Z,4.036
2023-05-05T09:26:08.016Z,3.993
2023-05-05T09:27:08.727Z,4.248
2023-05-05T09:28:09.111Z,3.69
2023-05-05T09:29:09.676Z,4.271
2023-05-05T09:30:10.296Z,3.871
2023-05-05T09:31:11.662Z,4.177
2023-05-05T09:32:11.978Z,3.884
2023-05-05T09:33:12.713Z,3.853
2023-05-05T09:34:13.582Z,3.693
2023-05-05T09:35:14.360Z,3.689
2023-05-05T09:36:15.136Z,4.423
2023-05-05T09:37:16.210Z,4.059
2023-05-05T09:38:16.952Z,4.186
2023-05-05T09:39:17.513Z,4.125
2023-05-05T09:40:18.222Z,3.943
2023-05-05T09:41:18.217Z,3.815
2023-05-05T09:42:18.465Z,4.339
2023-05-05T09:43:19.798Z,3.999
2023-05-05T09:44:19.617Z,4.396
2023-05-05T09:45:20.203Z,4.282
2023-05-05T09:46:20.790Z,4.382
2023-05-05T09:47:29.547Z,4.062
2023-05-05T09:48:21.723Z,4.413
2023-05-05T09:49:22.492Z,4.549
2023-05-05T09:50:23.445Z,4.754
2023-05-05T09:51:24.129Z,4.82
2023-05-05T09:52:25.080Z,4.54
2023-05-05T09:53:25.589Z,4.57
2023-05-05T09:54:26.329Z,4.531
2023-05-05T09:55:27.286Z,4.496
2023-05-05T09:56:27.823Z,4.483
2023-05-05T09:57:28.351Z,4.57
2023-05-05T09:58:29.261Z,4.906
2023-05-05T09:59:30.050Z,4.464
2023-05-05T10:00:30.646Z,4.588
2023-05-05T10:01:31.691Z,4.544
2023-05-05T10:02:32.534Z,4.442
2023-05-05T10:03:32.475Z,4.32
2023-05-05T10:04:33.245Z,4.649
2023-05-05T10:05:33.445Z,4.855
2023-05-05T10:06:34.171Z,4.669
2023-05-05T10:07:35.027Z,4.717
2023-05-05T10:08:35.568Z,4.506
2023-05-05T10:09:36.478Z,4.538
2023-05-05T10:10:37.313Z,4.506
2023-05-05T10:11:38.026Z,4.518
2023-05-05T10:12:38.930Z,4.515
2023-05-05T10:13:39.262Z,4.792
2023-05-05T10:14:40.123Z,5.161
2023-05-05T10:15:41.080Z,4.889
2023-05-05T10:16:41.963Z,5.235
2023-05-05T10:17:53.888Z,5.523
2023-05-05T10:18:42.966Z,5.499
2023-05-05T10:19:42.931Z,5.011
2023-05-05T10:20:43.665Z,5.262
2023-05-05T10:21:44.401Z,5.402
2023-05-05T10:22:44.927Z,5.554
2023-05-05T10:23:45.718Z,5.094
2023-05-05T10:24:46.635Z,5.253
2023-05-05T10:25:46.990Z,5.498
2023-05-05T10:26:47.784Z,5.733
2023-05-05T10:27:48.367Z,5.937
2023-05-05T10:28:49.152Z,5.778
2023-05-05T10:29:49.682Z,5.562
2023-05-05T10:30:50.501Z,5.531
2023-05-05T10:31:52.058Z,5.694
2023-05-05T10:33:03.475Z,5.662
2023-05-05T10:33:53.197Z,5.97
2023-05-05T10:34:53.920Z,5.812
2023-05-05T10:35:54.549Z,6.236
2023-05-05T10:36:54.659Z,6.272
2023-05-05T10:37:55.354Z,6.03
2023-05-05T10:38:55.451Z,6.347
2023-05-05T10:39:55.723Z,6.377
2023-05-05T10:40:56.034Z,6.293
2023-05-05T10:41:56.801Z,6.482
2023-05-05T10:42:57.073Z,6.454
2023-05-05T10:43:57.885Z,6.515
2023-05-05T10:44:58.901Z,6.828
2023-05-05T10:45:59.852Z,6.611
2023-05-05T10:47:00.553Z,6.792
2023-05-05T10:48:00.802Z,7.182
2023-05-05T10:49:01.716Z,7.104
2023-05-05T10:50:02.337Z,6.781
2023-05-05T10:51:03.778Z,6.941
2023-05-05T10:52:03.914Z,6.645
2023-05-05T10:53:04.849Z,6.833
2023-05-05T10:54:04.865Z,7.126
2023-05-05T10:55:04.934Z,6.909
2023-05-05T10:56:05.225Z,6.972
2023-05-05T10:57:06.695Z,7.196
2023-05-05T10:58:07.490Z,7.244
2023-05-05T10:59:08.433Z,6.928
2023-05-05T11:00:08.976Z,7.231
2023-05-05T11:01:08.957Z,6.911
2023-05-05T11:02:09.454Z,7.016
2023-05-05T11:03:10.315Z,6.972
2023-05-05T11:04:10.725Z,6.898
2023-05-05T11:05:10.892Z,6.836
2023-05-05T11:06:11.061Z,6.771
2023-05-05T11:07:14.960Z,6.948
2023-05-05T11:08:12.531Z,6.613
2023-05-05T11:09:12.614Z,6.526
2023-05-05T11:10:12.995Z,6.323
2023-05-05T11:11:14.041Z,6.349
2023-05-05T11:12:14.218Z,6.507
2023-05-05T11:13:14.212Z,6.968
2023-05-05T11:14:14.942Z,6.652
2023-05-05T11:15:14.772Z,7.086
2023-05-05T11:16:15.763Z,6.894
2023-05-05T11:17:16.085Z,6.706
2023-05-05T11:18:16.121Z,7.26
2023-05-05T11:19:16.337Z,7.537
2023-05-05T11:20:16.825Z,7.462
2023-05-05T11:21:17.810Z,7.057
2023-05-05T11:22:17.537Z,6.761
2023-05-05T11:23:17.516Z,6.933
2023-05-05T11:24:17.743Z,7.305
2023-05-05T11:25:18.192Z,7.441
2023-05-05T11:26:18.720Z,7.463
2023-05-05T11:27:18.956Z,7.159
2023-05-05T11:28:19.359Z,6.94
2023-05-05T11:29:19.826Z,6.868
2023-05-05T11:30:20.170Z,6.897
2023-05-05T11:31:20.962Z,6.502
2023-05-05T11:32:21.013Z,6.306
2023-05-05T11:33:21.291Z,6.616
2023-05-05T11:34:22.077Z,6.491
2023-05-05T11:35:22.410Z,6.61
2023-05-05T11:36:23.477Z,6.579
2023-05-05T11:37:24.089Z,6.676
2023-05-05T11:38:24.226Z,6.649
2023-05-05T11:39:24.494Z,7.069
2023-05-05T11:40:25.489Z,6.662
2023-05-05T11:41:25.919Z,6.56
2023-05-05T11:42:26.691Z,6.654
2023-05-05T11:43:27.157Z,6.902
2023-05-05T11:44:27.799Z,6.608
2023-05-05T11:45:28.715Z,6.577
2023-05-05T11:46:29.308Z,6.419
2023-05-05T11:47:29.348Z,6.782
2023-05-05T11:48:29.945Z,6.675
2023-05-05T11:49:30.402Z,6.772
2023-05-05T11:50:31.265Z,6.488
2023-05-05T11:51:32.919Z,6.197
2023-05-05T11:52:33.516Z,6.265
2023-05-05T11:53:34.366Z,6.233
2023-05-05T11:54:35.356Z,6.114
2023-05-05T11:55:36.249Z,6.178
2023-05-05T11:56:37.267Z,6.383
2023-05-05T11:57:37.436Z,6.085
2023-05-05T11:58:37.526Z,6.039
2023-05-05T11:59:37.690Z,6.354
2023-05-05T12:00:37.979Z,6.259
2023-05-05T12:01:39.047Z,6.505
2023-05-05T12:02:40.581Z,6.568
2023-05-05T12:03:41.220Z,6.207
2023-05-05T12:04:41.238Z,6.523
2023-05-05T12:05:42.111Z,6.129
2023-05-05T12:06:42.292Z,6.32
2023-05-05T12:07:42.912Z,6.343
2023-05-05T12:08:43.069Z,6.516
2023-05-05T12:09:43.309Z,6.262
2023-05-05T12:10:43.493Z,6.016
2023-05-05T12:11:43.595Z,6.113
2023-05-05T12:12:43.855Z,6.145
2023-05-05T12:13:43.964Z,6.504
2023-05-05T12:14:44.272Z,6.615
2023-05-05T12:15:44.416Z,7.168
2023-05-05T12:16:45.029Z,6.641
2023-05-05T12:17:45.627Z,6.735
2023-05-05T12:18:45.739Z,6.59
2023-05-05T12:19:46.581Z,6.175
2023-05-05T12:20:47.112Z,6.209
2023-05-05T12:21:47.890Z,6.156
2023-05-05T12:22:48.387Z,5.836
2023-05-05T12:23:49.491Z,6.044
2023-05-05T12:24:50.249Z,6.078
2023-05-05T12:25:51.120Z,6.482
2023-05-05T12:26:52.322Z,6.313
2023-05-05T12:27:53.402Z,6.045
2023-05-05T12:28:52.883Z,6.336
2023-05-05T12:29:53.732Z,6.376
2023-05-05T12:30:55.078Z,6.665
2023-05-05T12:31:54.999Z,6.397
2023-05-05T12:32:55.486Z,6.776
2023-05-05T12:33:55.515Z,6.666
2023-05-05T12:34:55.949Z,6.758
2023-05-05T12:35:56.085Z,6.608
2023-05-05T12:36:56.468Z,6.388
2023-05-05T12:37:56.850Z,6.451
2023-05-05T12:38:57.206Z,6.608
2023-05-05T12:39:57.565Z,6.515
2023-05-05T12:40:57.945Z,6.259
2023-05-05T12:41:58.053Z,6.639
2023-05-05T12:42:59.146Z,6.576
2023-05-05T12:43:59.286Z,6.169
2023-05-05T12:44:59.621Z,6.582
2023-05-05T12:46:00.643Z,6.414
2023-05-05T12:47:00.998Z,6.353
2023-05-05T12:48:01.616Z,6.165
2023-05-05T12:49:02.386Z,5.75
2023-05-05T12:50:02.760Z,6.294
2023-05-05T12:51:03.482Z,6.105
2023-05-05T12:52:03.954Z,6.071